Latest Weather Observations for Cobar

IDN60801

Issued at 4:34 am EST Sunday 1 May 2016 (issued every 30 minutes, with the page automatically refreshed every 10 minutes)

About weather observations | Map of weather stations | Latest weather observations for NSW | Other Formats
Station Details ID: 048027 Name: COBAR MO Lat: -31.48 Lon: 145.83 Height: 260.0 m
Data from the previous 72 hours. | See also: Recent months at Cobar
Date/Time
EST
Temp
°C
App
Temp
°C
Dew
Point
Rel
Hum
%
Delta-T
°C
Wind Press
QNH
hPa
Press
MSL
hPa
Rain
since 9 am
mm
Dir
 
Spd
km/h
Gust
km/h
Spd
kts
Gust
kts
01/04:30am 18.0 17.3 17.3 96 0.4 NNE 17 22 9 12 1014.4 1013.6 3.2
01/04:00am 18.2 18.3 17.4 95 0.5 N 13 19 7 10 1014.5 1013.7 3.2
01/03:30am 18.5 18.6 17.4 93 0.7 N 13 17 7 9 1015.0 1014.3 3.2
01/03:12am 18.8 18.3 17.8 94 0.6 NNW 17 28 9 15 1016.0 1015.3 2.8
01/03:00am 19.0 18.5 17.9 93 0.7 NNW 17 26 9 14 1016.7 1015.9 2.8
01/02:54am 19.0 19.0 18.0 94 0.6 NW 15 24 8 13 1017.0 1016.2 2.6
01/02:30am 19.4 18.4 17.6 89 1.1 NNW 19 28 10 15 1016.4 1015.6 1.6
01/02:00am 19.5 18.4 17.7 89 1.1 NNW 20 28 11 15 1016.1 1015.4 1.6
01/01:30am 19.2 19.1 17.9 92 0.8 N 15 22 8 12 1015.8 1015.1 1.4
01/01:00am 19.3 19.6 17.9 92 0.9 N 13 20 7 11 1015.7 1015.0 1.4
01/12:30am 19.5 19.0 17.9 90 1.0 N 17 26 9 14 1015.6 1014.9 1.2
01/12:00am 20.7 19.3 17.1 80 2.2 N 20 32 11 17 1015.8 1015.1 0.6
 
Date/Time
EST
Temp
°C
App
Temp
°C
Dew
Point
Rel
Hum
%
Delta-T
°C
Wind Press
QNH
hPa
Press
MSL
hPa
Rain
since 9 am
mm
Dir
 
Spd
km/h
Gust
km/h
Spd
kts
Gust
kts
30/11:30pm 21.0 20.4 17.5 80 2.2 NW 17 26 9 14 1016.0 1015.3 0.4
30/11:00pm 21.4 20.7 17.4 78 2.5 NNE 17 24 9 13 1014.9 1014.2 0.2
30/10:30pm 21.6 20.8 17.2 76 2.7 NNE 17 22 9 12 1014.9 1014.2 0.2
30/10:00pm 21.5 21.0 17.7 79 2.4 NNE 17 24 9 13 1015.1 1014.4 0.2
30/09:30pm 21.6 21.1 17.8 79 2.4 NE 17 20 9 11 1015.3 1014.6 0.2
30/09:00pm 21.7 21.6 17.9 79 2.4 NNE 15 19 8 10 1015.5 1014.8 0.2
30/08:30pm 21.7 22.0 17.9 79 2.4 NNE 13 15 7 8 1015.5 1014.8 0.2
30/08:00pm 22.1 22.4 18.0 77 2.6 NNE 13 15 7 8 1015.7 1015.0 0.2
30/07:30pm 22.4 23.0 17.8 75 2.9 NNE 11 15 6 8 1015.5 1014.8 0.2
30/07:00pm 22.5 23.5 17.7 74 3.0 NNE 9 11 5 6 1015.6 1014.9 0.2
30/06:30pm 22.9 23.8 17.6 72 3.3 NNE 9 13 5 7 1015.4 1014.7 0.2
30/06:00pm 23.4 24.6 17.3 68 3.8 NNE 7 9 4 5 1015.3 1014.6 0.2
30/05:30pm 24.1 24.4 17.0 64 4.4 NNE 11 17 6 9 1015.0 1014.3 0.2
30/05:00pm 24.8 23.7 16.4 59 5.2 NNE 17 22 9 12 1015.2 1014.5 0.2
30/04:30pm 25.2 24.5 16.3 57 5.5 NNE 15 22 8 12 1015.3 1014.6 0.2
30/04:00pm 25.4 25.2 16.7 58 5.4 NE 13 19 7 10 1015.5 1014.8 0.2
30/03:30pm 25.2 25.1 16.9 60 5.2 NE 13 17 7 9 1015.5 1014.8 0.2
30/03:00pm 25.3 25.5 16.8 59 5.3 NE 11 19 6 10 1015.5 1014.8 0.2
30/02:30pm 25.4 26.1 17.1 60 5.2 NNE 9 15 5 8 1015.7 1015.0 0.2
30/02:00pm 24.5 25.6 17.0 63 4.7 NNW 7 17 4 9 1015.9 1015.2 0.2
30/01:30pm 25.0 25.1 17.4 62 4.8 NNE 13 20 7 11 1016.2 1015.5 0.2
30/01:00pm 25.2 25.2 17.2 61 5.0 N 13 20 7 11 1016.5 1015.7 0.2
30/12:30pm 24.5 24.6 17.5 65 4.4 N 13 20 7 11 1016.9 1016.1 0.2
30/12:00pm 23.8 23.7 16.9 65 4.3 N 13 19 7 10 1017.6 1016.8 0.2
30/11:30am 23.7 23.3 17.1 66 4.1 NNE 15 22 8 12 1017.9 1017.1 0.2
30/11:00am 23.1 22.1 16.6 67 4.0 NE 17 24 9 13 1018.0 1017.2 0.2
30/10:30am 22.5 21.7 17.2 72 3.3 NE 17 22 9 12 1018.7 1018.0 0.0
30/10:00am 21.8 21.1 17.3 75 2.8 NE 17 22 9 12 1018.7 1018.0 0.0
30/09:30am 20.7 19.8 16.8 78 2.4 NE 17 20 9 11 1018.7 1018.0 0.0
30/09:00am 19.9 19.4 16.8 82 1.9 NE 15 19 8 10 1018.7 1018.0 40.2
30/08:30am 18.6 18.0 16.6 88 1.2 NE 15 20 8 11 1018.8 1018.1 40.2
30/08:00am 17.7 17.0 16.4 92 0.8 NE 15 20 8 11 1018.7 1018.0 40.2
30/07:30am 16.7 16.2 16.0 96 0.4 NE 13 19 7 10 1018.3 1017.6 40.2
30/07:00am 16.7 16.6 16.0 96 0.4 NE 11 17 6 9 1018.1 1017.3 40.2
30/06:30am 16.7 15.9 16.0 96 0.4 NE 15 20 8 11 1017.8 1017.0 40.2
30/06:00am 16.7 15.1 16.0 96 0.4 ENE 19 24 10 13 1017.5 1016.7 40.2
30/05:30am 16.5 14.8 16.2 98 0.2 NE 20 26 11 14 1017.5 1016.7 40.2
30/05:15am 16.5 15.0 16.2 98 0.2 ENE 19 22 10 12 1017.5 1016.7 40.2
30/05:00am 16.5 14.8 16.2 98 0.2 ENE 20 26 11 14 1017.6 1016.8 40.0
30/04:30am 16.5 15.7 16.2 98 0.2 NE 15 20 8 11 1018.5 1017.8 36.8
30/04:03am 16.5 16.5 16.2 98 0.2 NE 11 17 6 9 1018.3 1017.6 33.8
30/04:00am 16.5 16.5 16.2 98 0.2 NE 11 15 6 8 1018.3 1017.6 33.2
30/03:33am 16.5 16.9 16.2 98 0.2 E 9 13 5 7 1018.0 1017.2 32.8
30/03:30am 16.5 16.9 16.2 98 0.2 ENE 9 11 5 6 1018.1 1017.3 32.8
30/03:00am 16.6 17.6 16.3 98 0.2 WNW 6 11 3 6 1019.0 1018.3 30.8
30/02:55am 16.6 17.3 16.1 97 0.3 W 7 11 4 6 1019.1 1018.4 27.8
30/02:31am 16.6 15.0 16.1 97 0.3 ENE 19 24 10 13 1017.7 1016.9 19.0
30/02:30am 16.6 15.0 16.1 97 0.3 ENE 19 24 10 13 1017.6 1016.8 19.0
30/02:00am 16.6 15.0 16.1 97 0.3 ENE 19 26 10 14 1017.6 1016.8 18.6
30/01:30am 16.6 15.4 16.1 97 0.3 ENE 17 24 9 13 1017.8 1017.0 18.6
30/01:00am 16.8 15.6 16.1 96 0.4 ENE 17 22 9 12 1018.2 1017.5 18.0
30/12:31am 17.0 16.0 16.5 97 0.3 ENE 17 22 9 12 1018.4 1017.7 18.0
30/12:30am 17.0 16.0 16.5 97 0.3 ENE 17 22 9 12 1018.5 1017.8 18.0
30/12:21am 17.1 16.8 16.4 96 0.4 E 13 17 7 9 1018.8 1018.1 18.0
30/12:00am 17.2 16.9 16.5 96 0.4 ESE 13 17 7 9 1018.7 1018.0 17.0
 
Date/Time
EST
Temp
°C
App
Temp
°C
Dew
Point
Rel
Hum
%
Delta-T
°C
Wind Press
QNH
hPa
Press
MSL
hPa
Rain
since 9 am
mm
Dir
 
Spd
km/h
Gust
km/h
Spd
kts
Gust
kts
29/11:34pm 17.3 17.8 16.5 95 0.5 E 9 11 5 6 1019.3 1018.6 17.0
29/11:30pm 17.2 17.7 16.5 96 0.4 E 9 11 5 6 1019.2 1018.5 17.0
29/11:00pm 17.5 18.6 16.5 94 0.6 ESE 6 9 3 5 1019.4 1018.7 15.0
29/10:46pm 17.5 18.3 16.3 93 0.7 SSE 7 13 4 7 1019.4 1018.7 14.2
29/10:30pm 17.6 18.5 16.6 94 0.6 SSE 7 11 4 6 1019.4 1018.7 13.6
29/10:00pm 17.6 18.2 16.8 95 0.5 SE 9 13 5 7 1019.5 1018.8 13.6
29/09:30pm 17.7 18.3 16.7 94 0.6 SSE 9 17 5 9 1019.4 1018.7 13.6
29/09:00pm 17.6 18.1 16.6 94 0.6 SSE 9 15 5 8 1019.0 1018.3 13.6
29/08:30pm 17.7 18.0 16.9 95 0.5 SSE 11 17 6 9 1018.9 1018.2 13.6
29/08:27pm 17.7 18.0 16.9 95 0.5 SSE 11 17 6 9 1019.0 1018.3 13.6
29/08:00pm 17.7 17.3 17.2 97 0.3 SSE 15 22 8 12 1019.2 1018.5 12.2
29/07:55pm 17.7 17.3 17.2 97 0.3 S 15 22 8 12 1019.1 1018.4 11.8
29/07:36pm 17.7 16.9 17.2 97 0.3 S 17 22 9 12 1019.4 1018.7 11.4
29/07:30pm 17.7 17.3 17.2 97 0.3 S 15 22 8 12 1019.2 1018.5 11.4
29/07:00pm 17.6 17.6 17.3 98 0.2 S 13 20 7 11 1019.2 1018.5 10.0
29/06:30pm 17.8 18.1 17.1 96 0.4 S 11 17 6 9 1018.8 1018.1 8.0
29/06:28pm 17.8 18.1 17.1 96 0.4 S 11 17 6 9 1018.6 1017.9 7.6
29/06:00pm 17.7 17.3 17.2 97 0.3 S 15 20 8 11 1017.6 1016.8 7.0
29/05:30pm 17.7 17.7 17.2 97 0.3 SSW 13 22 7 12 1017.7 1016.9 7.0
29/05:27pm 17.8 17.5 17.3 97 0.3 SSW 15 22 8 12 1017.8 1017.0 7.0
29/05:02pm 17.8 16.5 17.3 97 0.3 SW 20 26 11 14 1017.7 1016.9 5.6
29/05:00pm 17.9 16.8 17.4 97 0.3 SW 19 28 10 15 1017.9 1017.1 5.4
29/04:41pm 17.8 16.5 17.3 97 0.3 SSW 20 32 11 17 1017.3 1016.5 4.8
29/04:30pm 17.8 15.8 17.3 97 0.3 SSW 24 43 13 23 1017.2 1016.4 4.6
29/04:00pm 18.3 12.1 17.3 94 0.6 SW 46 76 25 41 1017.1 1016.3 0.2
29/03:50pm 21.3 17.5 15.7 70 3.4 NNW 30 100 16 54 1016.0 1015.3 0.0
29/03:49pm 22.8 19.1 15.0 61 4.7 NNW 28 100 15 54 1015.8 1015.1 0.0
29/03:48pm 24.2 20.9 14.1 53 6.0 NNW 24 100 13 54 1015.1 1014.4 0.0
29/03:30pm 27.5 24.6 12.3 39 8.9 N 19 26 10 14 1015.4 1014.7 0.0
29/03:00pm 27.4 24.9 12.2 39 8.9 N 17 28 9 15 1015.3 1014.6 0.0
29/02:30pm 27.7 25.0 11.7 37 9.3 NNE 17 24 9 13 1015.5 1014.8 0.0
29/02:00pm 27.3 25.0 11.8 38 9.0 N 15 24 8 13 1015.8 1015.1 0.0
29/01:30pm 26.6 23.9 11.7 39 8.6 N 17 26 9 14 1016.2 1015.5 0.0
29/01:00pm 26.9 23.6 11.7 38 8.8 N 20 30 11 16 1016.4 1015.6 0.0
29/12:30pm 26.2 23.6 12.1 41 8.2 N 17 24 9 13 1016.8 1016.0 0.0
29/12:00pm 25.3 22.5 11.5 42 7.9 NNE 17 26 9 14 1017.5 1016.7 0.0
29/11:30am 24.6 20.3 10.8 42 7.8 NNE 24 35 13 19 1018.0 1017.2 0.0
29/11:00am 24.1 19.3 10.3 41 7.7 NNE 26 33 14 18 1018.1 1017.3 0.0
29/10:30am 24.0 19.8 9.9 41 7.8 NE 22 32 12 17 1018.5 1017.8 0.0
29/10:00am 22.9 19.0 9.5 42 7.3 NNE 20 28 11 15 1018.9 1018.2 0.0
29/09:30am 22.3 17.9 8.9 42 7.2 NNE 22 33 12 18 1019.0 1018.3 0.0
29/09:00am 21.7 17.7 8.3 42 7.1 NE 19 26 10 14 1019.2 1018.5 0.0
29/08:30am 20.9 17.3 8.2 44 6.7 NE 17 26 9 14 1019.5 1018.8 0.0
29/08:00am 20.5 17.2 8.1 44 6.5 NE 15 22 8 12 1019.4 1018.7 0.0
29/07:30am 20.1 16.4 8.1 46 6.3 NE 17 22 9 12 1019.0 1018.3 0.0
29/07:00am 19.5 15.8 8.0 47 6.0 NE 17 22 9 12 1018.9 1018.2 0.0
29/06:30am 19.6 15.9 8.1 47 6.0 NE 17 20 9 11 1018.8 1018.1 0.0
29/06:00am 20.1 16.1 8.3 46 6.2 NE 19 24 10 13 1018.6 1017.9 0.0
29/05:30am 20.2 17.0 8.4 46 6.2 NE 15 22 8 12 1018.7 1018.0 0.0
29/05:00am 20.1 16.9 8.6 47 6.1 NE 15 20 8 11 1018.5 1017.8 0.0
29/04:30am 20.3 16.8 8.6 47 6.2 NE 17 22 9 12 1018.3 1017.6 0.0
29/04:00am 20.3 16.8 8.8 47 6.1 NE 17 22 9 12 1018.6 1017.9 0.0
29/03:30am 20.2 16.7 8.9 48 6.0 NE 17 22 9 12 1018.5 1017.8 0.0
29/03:00am 20.2 16.7 8.9 48 6.0 NE 17 20 9 11 1018.7 1018.0 0.0
29/02:30am 19.9 16.5 9.2 50 5.7 NE 17 20 9 11 1018.9 1018.2 0.0
29/02:00am 20.2 16.9 9.4 50 5.8 NE 17 20 9 11 1019.4 1018.7 0.0
29/01:30am 20.2 17.2 9.4 50 5.8 NE 15 20 8 11 1019.6 1018.9 0.0
29/01:00am 20.5 17.6 9.6 49 5.9 NE 15 20 8 11 1019.7 1019.0 0.0
29/12:30am 20.5 17.6 9.8 50 5.8 NE 15 20 8 11 1019.7 1019.0 0.0
29/12:00am 20.7 17.9 10.1 50 5.8 NE 15 17 8 9 1019.9 1019.2 0.0
 
Date/Time
EST
Temp
°C
App
Temp
°C
Dew
Point
Rel
Hum
%
Delta-T
°C
Wind Press
QNH
hPa
Press
MSL
hPa
Rain
since 9 am
mm
Dir
 
Spd
km/h
Gust
km/h
Spd
kts
Gust
kts
28/11:30pm 21.6 18.8 9.9 47 6.4 NE 15 22 8 12 1019.8 1019.1 0.0
28/11:00pm 22.1 18.9 9.9 46 6.7 ENE 17 22 9 12 1019.8 1019.1 0.0
28/10:30pm 22.3 18.8 10.1 46 6.7 ENE 19 24 10 13 1020.0 1019.3 0.0
28/10:00pm 22.3 19.6 10.4 47 6.6 ENE 15 20 8 11 1020.2 1019.5 0.0
28/09:30pm 22.4 20.0 10.0 45 6.8 ENE 13 17 7 9 1020.2 1019.5 0.0
28/09:00pm 22.5 20.0 9.7 44 7.0 NE 13 17 7 9 1020.4 1019.6 0.0
28/08:30pm 22.2 19.6 9.5 44 6.9 ENE 13 13 7 7 1020.0 1019.3 0.0
28/08:00pm 22.2 19.6 9.3 43 7.0 ENE 13 15 7 8 1019.9 1019.2 0.0
28/07:30pm 22.6 19.9 9.1 42 7.3 NE 13 13 7 7 1019.8 1019.1 0.0
28/07:00pm 23.0 20.8 9.2 41 7.5 ENE 11 13 6 7 1019.5 1018.8 0.0
28/06:30pm 23.6 21.7 9.1 39 7.9 NE 9 11 5 6 1019.3 1018.6 0.0
28/06:00pm 24.5 22.2 8.9 37 8.5 NNE 11 13 6 7 1019.1 1018.4 0.0
28/05:30pm 26.2 23.8 8.7 33 9.6 NNE 11 17 6 9 1018.9 1018.2 0.0
28/05:00pm 26.9 23.6 8.2 30 10.2 NE 15 20 8 11 1018.6 1017.9 0.0
28/04:30pm 27.5 24.8 8.9 31 10.3 NNE 13 20 7 11 1018.7 1018.0 0.0
28/04:00pm 28.4 25.3 7.4 26 11.4 NNE 13 20 7 11 1018.8 1018.1 0.0
28/03:30pm 28.0 24.8 8.6 29 10.7 NNE 15 24 8 13 1019.1 1018.4 0.0
28/03:00pm 28.0 24.7 8.1 28 10.9 NNW 15 22 8 12 1019.1 1018.4 0.0
28/02:30pm 28.3 25.6 8.9 29 10.8 NNW 13 24 7 13 1019.3 1018.6 0.0
28/02:00pm 28.1 25.4 8.8 29 10.7 N 13 24 7 13 1019.6 1018.9 0.0
28/01:30pm 27.6 25.0 9.3 31 10.2 NNE 13 24 7 13 1019.9 1019.2 0.0
28/01:00pm 27.1 24.9 9.5 33 9.8 NNE 11 20 6 11 1020.0 1019.3 0.0
28/12:30pm 27.1 24.2 9.5 33 9.8 NNE 15 22 8 12 1020.7 1019.9 0.0
28/12:00pm 26.5 22.7 8.9 33 9.7 NNE 19 26 10 14 1021.4 1020.6 0.0
28/11:30am 25.8 22.6 10.1 37 8.8 NNE 17 22 9 12 1021.9 1021.2 0.0
28/11:00am 24.0 20.7 9.6 40 7.9 NNE 17 26 9 14 1022.2 1021.5 0.0
28/10:30am 23.3 19.1 9.6 41 7.5 NNE 22 28 12 15 1022.4 1021.7 0.0
28/10:00am 22.1 18.4 9.6 45 6.8 NNE 19 26 10 14 1022.5 1021.8 0.0
28/09:30am 22.4 18.4 9.1 42 7.2 NNE 20 28 11 15 1022.5 1021.8 0.0
28/09:00am 21.5 17.5 8.3 42 7.0 NNE 19 26 10 14 1022.6 1021.9 0.0
28/08:30am 18.7 15.2 7.1 46 5.9 NE 15 20 8 11 1022.4 1021.7 0.0
28/08:00am 19.0 15.1 7.0 45 6.1 NE 17 20 9 11 1021.9 1021.2 0.0
28/07:30am 18.4 14.0 6.7 46 5.9 NE 19 24 10 13 1021.6 1020.9 0.0
28/07:00am 18.2 13.6 6.4 46 5.9 NE 20 28 11 15 1021.1 1020.3 0.0
28/06:30am 17.7 14.1 6.7 48 5.5 NE 15 20 8 11 1021.0 1020.2 0.0
28/06:00am 17.6 13.6 6.6 48 5.5 NE 17 20 9 11 1020.6 1019.8 0.0
28/05:30am 17.5 13.9 6.7 49 5.4 NE 15 19 8 10 1020.7 1019.9 0.0
28/05:00am 17.2 13.6 6.8 50 5.2 ENE 15 17 8 9 1020.6 1019.8 0.0

Other Formats:

Comma delimited format used in spreadsheet applications
http://www.bom.gov.au/fwo/IDN60801/IDN60801.94711.axf

JavaScript Object Notation format (JSON) in row-major order
http://www.bom.gov.au/fwo/IDN60801/IDN60801.94711.json